sensor_id;sensor_type;location;lat;lon;timestamp;temperature;humidity
15296;DHT22;7749;49.964;7.890;2023-03-01T00:01:41;0.70;99.90
15296;DHT22;7749;49.964;7.890;2023-03-01T00:04:09;0.70;99.90
15296;DHT22;7749;49.964;7.890;2023-03-01T00:06:36;0.80;99.90
15296;DHT22;7749;49.964;7.890;2023-03-01T00:09:05;0.80;99.90
15296;DHT22;7749;49.964;7.890;2023-03-01T00:11:33;0.80;99.90
15296;DHT22;7749;49.964;7.890;2023-03-01T00:14:02;0.80;99.90
15296;DHT22;7749;49.964;7.890;2023-03-01T00:16:35;0.80;99.90
15296;DHT22;7749;49.964;7.890;2023-03-01T00:19:03;0.80;99.90
15296;DHT22;7749;49.964;7.890;2023-03-01T00:21:31;0.80;99.90
15296;DHT22;7749;49.964;7.890;2023-03-01T00:23:59;0.80;99.90
15296;DHT22;7749;49.964;7.890;2023-03-01T00:26:27;0.80;99.90
15296;DHT22;7749;49.964;7.890;2023-03-01T00:28:57;0.80;99.90
15296;DHT22;7749;49.964;7.890;2023-03-01T00:31:29;0.80;99.90
15296;DHT22;7749;49.964;7.890;2023-03-01T00:33:59;0.80;99.90
15296;DHT22;7749;49.964;7.890;2023-03-01T00:36:30;0.80;99.90
15296;DHT22;7749;49.964;7.890;2023-03-01T00:39:01;0.70;99.90
15296;DHT22;7749;49.964;7.890;2023-03-01T00:41:50;0.80;99.90
15296;DHT22;7749;49.964;7.890;2023-03-01T00:44:18;0.80;99.90
15296;DHT22;7749;49.964;7.890;2023-03-01T00:46:46;0.80;99.90
15296;DHT22;7749;49.964;7.890;2023-03-01T00:49:14;0.80;99.90
15296;DHT22;7749;49.964;7.890;2023-03-01T00:51:44;0.80;99.90
15296;DHT22;7749;49.964;7.890;2023-03-01T00:54:11;0.80;99.90
15296;DHT22;7749;49.964;7.890;2023-03-01T00:56:39;0.70;99.90
15296;DHT22;7749;49.964;7.890;2023-03-01T00:59:07;0.60;99.90
15296;DHT22;7749;49.964;7.890;2023-03-01T01:01:34;0.50;99.90
15296;DHT22;7749;49.964;7.890;2023-03-01T01:04:08;0.50;99.90
15296;DHT22;7749;49.964;7.890;2023-03-01T01:06:47;0.50;99.90
15296;DHT22;7749;49.964;7.890;2023-03-01T01:09:16;0.50;99.90
15296;DHT22;7749;49.964;7.890;2023-03-01T01:11:50;0.50;99.90
15296;DHT22;7749;49.964;7.890;2023-03-01T01:14:19;0.50;99.90
15296;DHT22;7749;49.964;7.890;2023-03-01T01:16:46;0.60;99.90
15296;DHT22;7749;49.964;7.890;2023-03-01T01:19:14;0.60;99.90
15296;DHT22;7749;49.964;7.890;2023-03-01T01:21:45;0.50;99.90
15296;DHT22;7749;49.964;7.890;2023-03-01T01:24:14;0.30;99.90
15296;DHT22;7749;49.964;7.890;2023-03-01T01:26:42;0.30;99.90
15296;DHT22;7749;49.964;7.890;2023-03-01T01:29:10;0.30;99.90
15296;DHT22;7749;49.964;7.890;2023-03-01T01:31:40;0.30;99.90
15296;DHT22;7749;49.964;7.890;2023-03-01T01:34:17;0.30;99.90
15296;DHT22;7749;49.964;7.890;2023-03-01T01:36:48;0.30;99.90
15296;DHT22;7749;49.964;7.890;2023-03-01T01:39:17;0.30;99.90
15296;DHT22;7749;49.964;7.890;2023-03-01T01:41:44;0.20;99.90
15296;DHT22;7749;49.964;7.890;2023-03-01T01:44:24;0.20;99.90
15296;DHT22;7749;49.964;7.890;2023-03-01T01:46:57;0.30;99.90
15296;DHT22;7749;49.964;7.890;2023-03-01T01:49:33;0.30;99.90
15296;DHT22;7749;49.964;7.890;2023-03-01T01:52:31;0.30;99.90
15296;DHT22;7749;49.964;7.890;2023-03-01T01:57:40;0.30;99.90
15296;DHT22;7749;49.964;7.890;2023-03-01T02:00:15;0.30;99.90
15296;DHT22;7749;49.964;7.890;2023-03-01T02:02:45;0.30;99.90
15296;DHT22;7749;49.964;7.890;2023-03-01T02:08:14;0.40;99.90
15296;DHT22;7749;49.964;7.890;2023-03-01T02:10:44;0.40;99.90
15296;DHT22;7749;49.964;7.890;2023-03-01T02:13:12;0.40;99.90
15296;DHT22;7749;49.964;7.890;2023-03-01T02:15:41;0.40;99.90
15296;DHT22;7749;49.964;7.890;2023-03-01T02:18:17;0.40;99.90
15296;DHT22;7749;49.964;7.890;2023-03-01T02:23:19;0.30;99.90
15296;DHT22;7749;49.964;7.890;2023-03-01T02:28:33;0.30;99.90
15296;DHT22;7749;49.964;7.890;2023-03-01T02:31:04;0.30;99.90
15296;DHT22;7749;49.964;7.890;2023-03-01T02:33:52;0.30;99.90
15296;DHT22;7749;49.964;7.890;2023-03-01T02:36:26;0.30;99.90
15296;DHT22;7749;49.964;7.890;2023-03-01T02:38:58;0.20;99.90
15296;DHT22;7749;49.964;7.890;2023-03-01T02:41:30;0.20;99.90
15296;DHT22;7749;49.964;7.890;2023-03-01T02:43:59;0.10;99.90
15296;DHT22;7749;49.964;7.890;2023-03-01T02:46:27;0.10;99.90
15296;DHT22;7749;49.964;7.890;2023-03-01T02:48:57;0.00;99.90
15296;DHT22;7749;49.964;7.890;2023-03-01T02:54:12;0.00;99.90
15296;DHT22;7749;49.964;7.890;2023-03-01T02:56:43;0.00;99.90
15296;DHT22;7749;49.964;7.890;2023-03-01T02:59:11;0.00;99.90
15296;DHT22;7749;49.964;7.890;2023-03-01T03:01:39;-0.10;99.90
15296;DHT22;7749;49.964;7.890;2023-03-01T03:04:10;-0.10;99.90
15296;DHT22;7749;49.964;7.890;2023-03-01T03:06:38;-0.10;99.90
15296;DHT22;7749;49.964;7.890;2023-03-01T03:09:06;0.00;99.90
15296;DHT22;7749;49.964;7.890;2023-03-01T03:11:35;0.00;99.90
15296;DHT22;7749;49.964;7.890;2023-03-01T03:14:04;0.00;99.90
15296;DHT22;7749;49.964;7.890;2023-03-01T03:16:33;0.00;99.90
15296;DHT22;7749;49.964;7.890;2023-03-01T03:19:00;0.00;99.90
15296;DHT22;7749;49.964;7.890;2023-03-01T03:21:33;0.10;99.90
15296;DHT22;7749;49.964;7.890;2023-03-01T03:24:04;0.10;99.90
15296;DHT22;7749;49.964;7.890;2023-03-01T03:26:33;0.10;99.90
15296;DHT22;7749;49.964;7.890;2023-03-01T03:29:04;0.20;99.90
15296;DHT22;7749;49.964;7.890;2023-03-01T03:31:31;0.20;99.90
15296;DHT22;7749;49.964;7.890;2023-03-01T03:33:59;0.20;99.90
15296;DHT22;7749;49.964;7.890;2023-03-01T03:36:27;0.30;99.90
15296;DHT22;7749;49.964;7.890;2023-03-01T03:38:55;0.30;99.90
15296;DHT22;7749;49.964;7.890;2023-03-01T03:41:22;0.30;99.90
15296;DHT22;7749;49.964;7.890;2023-03-01T03:43:50;0.20;99.90
15296;DHT22;7749;49.964;7.890;2023-03-01T03:46:21;0.20;99.90
15296;DHT22;7749;49.964;7.890;2023-03-01T03:48:48;0.20;99.90
15296;DHT22;7749;49.964;7.890;2023-03-01T03:51:18;0.10;99.90
15296;DHT22;7749;49.964;7.890;2023-03-01T03:53:46;0.20;99.90
15296;DHT22;7749;49.964;7.890;2023-03-01T03:56:14;0.20;99.90
15296;DHT22;7749;49.964;7.890;2023-03-01T03:58:42;0.20;99.90
15296;DHT22;7749;49.964;7.890;2023-03-01T04:01:09;0.10;99.90
15296;DHT22;7749;49.964;7.890;2023-03-01T04:03:37;0.10;99.90
15296;DHT22;7749;49.964;7.890;2023-03-01T04:06:05;0.10;99.90
15296;DHT22;7749;49.964;7.890;2023-03-01T04:08:33;0.10;99.90
15296;DHT22;7749;49.964;7.890;2023-03-01T04:11:02;0.10;99.90
15296;DHT22;7749;49.964;7.890;2023-03-01T04:13:52;0.20;99.90
15296;DHT22;7749;49.964;7.890;2023-03-01T04:16:20;0.10;99.90
15296;DHT22;7749;49.964;7.890;2023-03-01T04:18:48;0.20;99.90
15296;DHT22;7749;49.964;7.890;2023-03-01T04:21:16;0.20;99.90
15296;DHT22;7749;49.964;7.890;2023-03-01T04:23:44;0.20;99.90
15296;DHT22;7749;49.964;7.890;2023-03-01T04:26:11;0.20;99.90
15296;DHT22;7749;49.964;7.890;2023-03-01T04:28:43;0.20;99.90
15296;DHT22;7749;49.964;7.890;2023-03-01T04:31:15;0.10;99.90
15296;DHT22;7749;49.964;7.890;2023-03-01T04:33:52;0.10;99.90
15296;DHT22;7749;49.964;7.890;2023-03-01T04:36:26;0.10;99.90
15296;DHT22;7749;49.964;7.890;2023-03-01T04:38:55;0.10;99.90
15296;DHT22;7749;49.964;7.890;2023-03-01T04:41:24;0.00;99.90
15296;DHT22;7749;49.964;7.890;2023-03-01T04:43:54;0.00;99.90
15296;DHT22;7749;49.964;7.890;2023-03-01T04:46:22;0.00;99.90
15296;DHT22;7749;49.964;7.890;2023-03-01T04:48:50;0.00;99.90
15296;DHT22;7749;49.964;7.890;2023-03-01T04:51:17;0.00;99.90
15296;DHT22;7749;49.964;7.890;2023-03-01T04:53:46;-0.10;99.90
15296;DHT22;7749;49.964;7.890;2023-03-01T04:56:14;-0.10;99.90
15296;DHT22;7749;49.964;7.890;2023-03-01T04:58:42;0.00;99.90
15296;DHT22;7749;49.964;7.890;2023-03-01T05:01:13;0.00;99.90
15296;DHT22;7749;49.964;7.890;2023-03-01T05:03:51;0.00;99.90
15296;DHT22;7749;49.964;7.890;2023-03-01T05:06:20;0.00;99.90
15296;DHT22;7749;49.964;7.890;2023-03-01T05:08:48;0.00;99.90
15296;DHT22;7749;49.964;7.890;2023-03-01T05:11:15;-0.10;99.90
15296;DHT22;7749;49.964;7.890;2023-03-01T05:13:43;-0.10;99.90
15296;DHT22;7749;49.964;7.890;2023-03-01T05:16:11;-0.10;99.90
15296;DHT22;7749;49.964;7.890;2023-03-01T05:18:40;-0.10;99.90
15296;DHT22;7749;49.964;7.890;2023-03-01T05:21:13;-0.10;99.90
15296;DHT22;7749;49.964;7.890;2023-03-01T05:23:44;-0.10;99.90
15296;DHT22;7749;49.964;7.890;2023-03-01T05:26:12;-0.10;99.90
15296;DHT22;7749;49.964;7.890;2023-03-01T05:28:55;-0.10;99.90
15296;DHT22;7749;49.964;7.890;2023-03-01T05:31:27;-0.10;99.90
15296;DHT22;7749;49.964;7.890;2023-03-01T05:33:54;-0.10;99.90
15296;DHT22;7749;49.964;7.890;2023-03-01T05:36:22;-0.10;99.90
15296;DHT22;7749;49.964;7.890;2023-03-01T05:38:50;-0.10;99.90
15296;DHT22;7749;49.964;7.890;2023-03-01T05:41:18;-0.20;99.90
15296;DHT22;7749;49.964;7.890;2023-03-01T05:43:47;-0.20;99.90
15296;DHT22;7749;49.964;7.890;2023-03-01T05:46:15;-0.20;99.90
15296;DHT22;7749;49.964;7.890;2023-03-01T05:48:42;-0.20;99.90
15296;DHT22;7749;49.964;7.890;2023-03-01T05:51:11;-0.20;99.90
15296;DHT22;7749;49.964;7.890;2023-03-01T05:53:39;-0.30;99.90
15296;DHT22;7749;49.964;7.890;2023-03-01T05:56:07;-0.30;99.90
15296;DHT22;7749;49.964;7.890;2023-03-01T05:58:35;-0.40;99.90
15296;DHT22;7749;49.964;7.890;2023-03-01T06:01:02;-0.40;99.90
15296;DHT22;7749;49.964;7.890;2023-03-01T06:03:30;-0.40;99.90
15296;DHT22;7749;49.964;7.890;2023-03-01T06:05:58;-0.40;99.90
15296;DHT22;7749;49.964;7.890;2023-03-01T06:08:26;-0.40;99.90
15296;DHT22;7749;49.964;7.890;2023-03-01T06:10:54;-0.40;99.90
15296;DHT22;7749;49.964;7.890;2023-03-01T06:13:23;-0.40;99.90
15296;DHT22;7749;49.964;7.890;2023-03-01T06:15:51;-0.50;99.90
15296;DHT22;7749;49.964;7.890;2023-03-01T06:18:19;-0.50;99.90
15296;DHT22;7749;49.964;7.890;2023-03-01T06:20:53;-0.50;99.90
15296;DHT22;7749;49.964;7.890;2023-03-01T06:23:22;-0.50;99.90
15296;DHT22;7749;49.964;7.890;2023-03-01T06:25:50;-0.50;99.90
15296;DHT22;7749;49.964;7.890;2023-03-01T06:28:18;-0.40;99.90
15296;DHT22;7749;49.964;7.890;2023-03-01T06:30:46;-0.40;99.90
15296;DHT22;7749;49.964;7.890;2023-03-01T06:33:13;-0.40;99.90
15296;DHT22;7749;49.964;7.890;2023-03-01T06:35:41;-0.40;99.90
15296;DHT22;7749;49.964;7.890;2023-03-01T06:38:09;-0.40;99.90
15296;DHT22;7749;49.964;7.890;2023-03-01T06:40:37;-0.40;99.90
15296;DHT22;7749;49.964;7.890;2023-03-01T06:43:04;-0.40;99.90
15296;DHT22;7749;49.964;7.890;2023-03-01T06:45:32;-0.30;99.90
15296;DHT22;7749;49.964;7.890;2023-03-01T06:48:04;-0.30;99.90
15296;DHT22;7749;49.964;7.890;2023-03-01T06:50:32;-0.30;99.90
15296;DHT22;7749;49.964;7.890;2023-03-01T06:53:01;-0.20;99.90
15296;DHT22;7749;49.964;7.890;2023-03-01T06:55:29;-0.20;99.90
15296;DHT22;7749;49.964;7.890;2023-03-01T06:57:57;-0.20;99.90
15296;DHT22;7749;49.964;7.890;2023-03-01T07:00:26;-0.20;99.90
15296;DHT22;7749;49.964;7.890;2023-03-01T07:03:01;-0.20;99.90
15296;DHT22;7749;49.964;7.890;2023-03-01T07:05:30;-0.20;99.90
15296;DHT22;7749;49.964;7.890;2023-03-01T07:07:57;-0.20;99.90
15296;DHT22;7749;49.964;7.890;2023-03-01T07:10:25;-0.10;99.90
15296;DHT22;7749;49.964;7.890;2023-03-01T07:12:57;-0.10;99.90
15296;DHT22;7749;49.964;7.890;2023-03-01T07:15:25;0.00;99.90
15296;DHT22;7749;49.964;7.890;2023-03-01T07:17:54;0.00;99.90
15296;DHT22;7749;49.964;7.890;2023-03-01T07:20:21;0.10;99.90
15296;DHT22;7749;49.964;7.890;2023-03-01T07:22:53;0.10;99.90
15296;DHT22;7749;49.964;7.890;2023-03-01T07:25:20;0.20;99.90
15296;DHT22;7749;49.964;7.890;2023-03-01T07:27:50;0.30;99.90
15296;DHT22;7749;49.964;7.890;2023-03-01T07:30:19;0.50;99.90
15296;DHT22;7749;49.964;7.890;2023-03-01T07:32:47;0.50;99.90
15296;DHT22;7749;49.964;7.890;2023-03-01T07:35:15;0.60;99.90
15296;DHT22;7749;49.964;7.890;2023-03-01T07:37:43;0.70;99.90
15296;DHT22;7749;49.964;7.890;2023-03-01T07:40:11;0.70;99.90
15296;DHT22;7749;49.964;7.890;2023-03-01T07:42:39;0.90;99.90
15296;DHT22;7749;49.964;7.890;2023-03-01T07:45:07;1.00;99.90
15296;DHT22;7749;49.964;7.890;2023-03-01T07:47:38;1.00;99.90
15296;DHT22;7749;49.964;7.890;2023-03-01T07:50:06;1.00;99.90
15296;DHT22;7749;49.964;7.890;2023-03-01T07:52:33;1.20;99.90
15296;DHT22;7749;49.964;7.890;2023-03-01T07:55:01;1.30;99.90
15296;DHT22;7749;49.964;7.890;2023-03-01T07:57:28;1.50;99.90
15296;DHT22;7749;49.964;7.890;2023-03-01T07:59:56;1.80;99.90
15296;DHT22;7749;49.964;7.890;2023-03-01T08:02:24;1.90;99.90
15296;DHT22;7749;49.964;7.890;2023-03-01T08:04:51;1.60;99.90
15296;DHT22;7749;49.964;7.890;2023-03-01T08:07:19;1.50;99.90
15296;DHT22;7749;49.964;7.890;2023-03-01T08:09:47;1.50;99.90
15296;DHT22;7749;49.964;7.890;2023-03-01T08:12:14;1.70;99.90
15296;DHT22;7749;49.964;7.890;2023-03-01T08:14:44;1.80;99.90
15296;DHT22;7749;49.964;7.890;2023-03-01T08:17:13;2.20;99.90
15296;DHT22;7749;49.964;7.890;2023-03-01T08:19:42;2.50;99.90
15296;DHT22;7749;49.964;7.890;2023-03-01T08:22:10;2.20;99.90
15296;DHT22;7749;49.964;7.890;2023-03-01T08:24:38;2.10;99.90
15296;DHT22;7749;49.964;7.890;2023-03-01T08:27:05;2.20;99.90
15296;DHT22;7749;49.964;7.890;2023-03-01T08:29:33;2.40;99.90
15296;DHT22;7749;49.964;7.890;2023-03-01T08:32:01;2.50;99.90
15296;DHT22;7749;49.964;7.890;2023-03-01T08:34:29;2.80;99.90
15296;DHT22;7749;49.964;7.890;2023-03-01T08:36:58;2.70;99.90
15296;DHT22;7749;49.964;7.890;2023-03-01T08:39:26;2.80;99.90
15296;DHT22;7749;49.964;7.890;2023-03-01T08:41:53;2.90;99.90
15296;DHT22;7749;49.964;7.890;2023-03-01T08:44:21;2.80;99.90
15296;DHT22;7749;49.964;7.890;2023-03-01T08:46:50;2.70;99.90
15296;DHT22;7749;49.964;7.890;2023-03-01T08:49:19;2.70;99.90
15296;DHT22;7749;49.964;7.890;2023-03-01T08:51:47;2.70;99.90
15296;DHT22;7749;49.964;7.890;2023-03-01T08:54:20;2.80;99.90
15296;DHT22;7749;49.964;7.890;2023-03-01T08:56:49;2.80;99.90
15296;DHT22;7749;49.964;7.890;2023-03-01T08:59:18;2.80;99.90
15296;DHT22;7749;49.964;7.890;2023-03-01T09:01:45;2.90;99.90
15296;DHT22;7749;49.964;7.890;2023-03-01T09:04:14;2.90;99.90
15296;DHT22;7749;49.964;7.890;2023-03-01T09:06:45;3.10;99.90
15296;DHT22;7749;49.964;7.890;2023-03-01T09:09:17;3.20;99.90
15296;DHT22;7749;49.964;7.890;2023-03-01T09:11:46;3.20;99.90
15296;DHT22;7749;49.964;7.890;2023-03-01T09:14:14;3.30;99.90
15296;DHT22;7749;49.964;7.890;2023-03-01T09:16:42;3.30;99.90
15296;DHT22;7749;49.964;7.890;2023-03-01T09:19:10;3.40;99.90
15296;DHT22;7749;49.964;7.890;2023-03-01T09:21:39;3.50;99.90
15296;DHT22;7749;49.964;7.890;2023-03-01T09:24:13;3.70;99.90
15296;DHT22;7749;49.964;7.890;2023-03-01T09:26:41;3.90;99.90
15296;DHT22;7749;49.964;7.890;2023-03-01T09:29:09;4.00;99.90
15296;DHT22;7749;49.964;7.890;2023-03-01T09:31:40;4.10;99.90
15296;DHT22;7749;49.964;7.890;2023-03-01T09:34:09;4.20;99.90
15296;DHT22;7749;49.964;7.890;2023-03-01T09:36:37;4.50;99.90
15296;DHT22;7749;49.964;7.890;2023-03-01T09:39:05;4.60;99.90
15296;DHT22;7749;49.964;7.890;2023-03-01T09:41:58;4.60;99.90
15296;DHT22;7749;49.964;7.890;2023-03-01T09:44:29;4.60;99.90
15296;DHT22;7749;49.964;7.890;2023-03-01T09:46:59;4.70;99.90
15296;DHT22;7749;49.964;7.890;2023-03-01T09:49:30;4.80;99.90
15296;DHT22;7749;49.964;7.890;2023-03-01T09:52:19;5.00;99.90
15296;DHT22;7749;49.964;7.890;2023-03-01T09:54:54;5.10;99.90
15296;DHT22;7749;49.964;7.890;2023-03-01T09:57:49;5.10;99.90
15296;DHT22;7749;49.964;7.890;2023-03-01T10:02:58;5.60;99.90
15296;DHT22;7749;49.964;7.890;2023-03-01T10:08:24;5.90;99.90
15296;DHT22;7749;49.964;7.890;2023-03-01T10:10:53;6.10;99.90
15296;DHT22;7749;49.964;7.890;2023-03-01T10:16:13;6.40;99.90
15296;DHT22;7749;49.964;7.890;2023-03-01T10:18:44;6.00;99.90
15296;DHT22;7749;49.964;7.890;2023-03-01T10:21:18;5.70;99.90
15296;DHT22;7749;49.964;7.890;2023-03-01T10:23:50;5.80;99.90
15296;DHT22;7749;49.964;7.890;2023-03-01T10:29:15;6.50;99.90
15296;DHT22;7749;49.964;7.890;2023-03-01T10:31:51;6.70;99.90
15296;DHT22;7749;49.964;7.890;2023-03-01T10:34:21;7.00;99.90
15296;DHT22;7749;49.964;7.890;2023-03-01T10:36:51;7.10;99.90
15296;DHT22;7749;49.964;7.890;2023-03-01T10:39:22;7.20;99.90
15296;DHT22;7749;49.964;7.890;2023-03-01T10:42:19;7.40;99.90
15296;DHT22;7749;49.964;7.890;2023-03-01T10:44:49;7.60;99.90
15296;DHT22;7749;49.964;7.890;2023-03-01T10:47:27;7.60;99.90
15296;DHT22;7749;49.964;7.890;2023-03-01T10:49:58;7.70;99.90
15296;DHT22;7749;49.964;7.890;2023-03-01T10:52:37;7.60;99.90
15296;DHT22;7749;49.964;7.890;2023-03-01T10:55:24;7.70;99.90
15296;DHT22;7749;49.964;7.890;2023-03-01T11:00:52;7.60;99.90
15296;DHT22;7749;49.964;7.890;2023-03-01T11:08:42;9.10;99.90
15296;DHT22;7749;49.964;7.890;2023-03-01T11:11:18;12.00;95.80
15296;DHT22;7749;49.964;7.890;2023-03-01T11:21:41;17.60;56.90
15296;DHT22;7749;49.964;7.890;2023-03-01T11:24:12;18.20;53.70
15296;DHT22;7749;49.964;7.890;2023-03-01T11:26:47;19.10;50.70
15296;DHT22;7749;49.964;7.890;2023-03-01T11:32:01;17.90;48.40
15296;DHT22;7749;49.964;7.890;2023-03-01T11:35:02;17.40;49.50
15296;DHT22;7749;49.964;7.890;2023-03-01T11:37:40;17.30;47.60
15296;DHT22;7749;49.964;7.890;2023-03-01T11:40:55;18.00;46.90
15296;DHT22;7749;49.964;7.890;2023-03-01T11:51:07;18.90;43.70
15296;DHT22;7749;49.964;7.890;2023-03-01T12:07:49;21.70;36.20
15296;DHT22;7749;49.964;7.890;2023-03-01T12:10:28;21.60;35.90
15296;DHT22;7749;49.964;7.890;2023-03-01T12:35:25;22.10;33.70
15296;DHT22;7749;49.964;7.890;2023-03-01T12:41:01;23.00;31.70
15296;DHT22;7749;49.964;7.890;2023-03-01T12:43:51;22.10;31.80
15296;DHT22;7749;49.964;7.890;2023-03-01T12:49:01;22.80;30.40
15296;DHT22;7749;49.964;7.890;2023-03-01T12:51:31;22.20;30.80
15296;DHT22;7749;49.964;7.890;2023-03-01T12:54:07;23.10;30.00
15296;DHT22;7749;49.964;7.890;2023-03-01T12:56:39;23.20;29.60
15296;DHT22;7749;49.964;7.890;2023-03-01T12:59:43;23.70;29.30
15296;DHT22;7749;49.964;7.890;2023-03-01T13:02:25;24.40;28.60
15296;DHT22;7749;49.964;7.890;2023-03-01T13:05:06;24.70;28.40
15296;DHT22;7749;49.964;7.890;2023-03-01T13:08:00;24.50;27.70
15296;DHT22;7749;49.964;7.890;2023-03-01T13:10:34;25.00;27.20
15296;DHT22;7749;49.964;7.890;2023-03-01T13:13:24;23.50;27.50
15296;DHT22;7749;49.964;7.890;2023-03-01T13:15:53;23.30;28.40
15296;DHT22;7749;49.964;7.890;2023-03-01T13:20:55;24.20;27.50
15296;DHT22;7749;49.964;7.890;2023-03-01T13:23:28;24.90;27.10
15296;DHT22;7749;49.964;7.890;2023-03-01T13:26:15;24.70;26.60
15296;DHT22;7749;49.964;7.890;2023-03-01T13:28:50;24.40;26.70
15296;DHT22;7749;49.964;7.890;2023-03-01T13:33:53;24.60;26.20
15296;DHT22;7749;49.964;7.890;2023-03-01T13:38:58;24.90;25.80
15296;DHT22;7749;49.964;7.890;2023-03-01T13:44:34;24.40;25.90
15296;DHT22;7749;49.964;7.890;2023-03-01T13:49:58;24.70;25.40
15296;DHT22;7749;49.964;7.890;2023-03-01T13:55:36;25.00;24.90
15296;DHT22;7749;49.964;7.890;2023-03-01T13:58:16;25.60;24.90
15296;DHT22;7749;49.964;7.890;2023-03-01T14:00:45;26.20;24.40
15296;DHT22;7749;49.964;7.890;2023-03-01T14:03:18;25.40;24.80
15296;DHT22;7749;49.964;7.890;2023-03-01T14:08:46;22.60;27.20
15296;DHT22;7749;49.964;7.890;2023-03-01T14:17:38;23.10;26.00
15296;DHT22;7749;49.964;7.890;2023-03-01T14:20:18;21.70;26.90
15296;DHT22;7749;49.964;7.890;2023-03-01T14:22:52;21.00;28.70
15296;DHT22;7749;49.964;7.890;2023-03-01T14:25:27;20.50;29.40
15296;DHT22;7749;49.964;7.890;2023-03-01T14:28:03;21.50;28.60
15296;DHT22;7749;49.964;7.890;2023-03-01T14:30:43;22.30;27.70
15296;DHT22;7749;49.964;7.890;2023-03-01T14:36:00;21.90;27.60
15296;DHT22;7749;49.964;7.890;2023-03-01T14:41:00;22.10;27.80
15296;DHT22;7749;49.964;7.890;2023-03-01T14:43:32;21.90;27.80
15296;DHT22;7749;49.964;7.890;2023-03-01T14:46:00;22.40;27.90
15296;DHT22;7749;49.964;7.890;2023-03-01T14:48:29;20.30;28.50
15296;DHT22;7749;49.964;7.890;2023-03-01T14:50:57;19.80;30.00
15296;DHT22;7749;49.964;7.890;2023-03-01T14:53:27;21.10;29.30
15296;DHT22;7749;49.964;7.890;2023-03-01T14:56:16;21.90;27.90
15296;DHT22;7749;49.964;7.890;2023-03-01T14:58:53;22.00;28.10
15296;DHT22;7749;49.964;7.890;2023-03-01T15:01:25;21.70;28.30
15296;DHT22;7749;49.964;7.890;2023-03-01T15:03:52;20.00;29.60
15296;DHT22;7749;49.964;7.890;2023-03-01T15:06:22;19.80;30.80
15296;DHT22;7749;49.964;7.890;2023-03-01T15:08:53;19.80;29.90
15296;DHT22;7749;49.964;7.890;2023-03-01T15:11:33;19.20;30.90
15296;DHT22;7749;49.964;7.890;2023-03-01T15:14:00;19.40;30.70
15296;DHT22;7749;49.964;7.890;2023-03-01T15:16:32;19.20;31.30
15296;DHT22;7749;49.964;7.890;2023-03-01T15:19:06;19.80;30.60
15296;DHT22;7749;49.964;7.890;2023-03-01T15:21:38;20.60;29.70
15296;DHT22;7749;49.964;7.890;2023-03-01T15:26:59;21.10;29.00
15296;DHT22;7749;49.964;7.890;2023-03-01T15:29:34;20.10;29.40
15296;DHT22;7749;49.964;7.890;2023-03-01T15:32:31;20.50;29.50
15296;DHT22;7749;49.964;7.890;2023-03-01T15:35:01;19.20;30.00
15296;DHT22;7749;49.964;7.890;2023-03-01T15:37:49;16.40;33.50
15296;DHT22;7749;49.964;7.890;2023-03-01T15:40:29;15.40;37.50
15296;DHT22;7749;49.964;7.890;2023-03-01T15:43:05;14.80;37.40
15296;DHT22;7749;49.964;7.890;2023-03-01T15:45:33;13.30;40.10
15296;DHT22;7749;49.964;7.890;2023-03-01T15:48:04;12.40;42.30
15296;DHT22;7749;49.964;7.890;2023-03-01T15:50:55;11.60;44.60
15296;DHT22;7749;49.964;7.890;2023-03-01T15:53:24;10.70;46.90
15296;DHT22;7749;49.964;7.890;2023-03-01T15:55:53;10.30;47.90
15296;DHT22;7749;49.964;7.890;2023-03-01T15:58:23;10.10;48.60
15296;DHT22;7749;49.964;7.890;2023-03-01T16:00:52;9.90;49.00
15296;DHT22;7749;49.964;7.890;2023-03-01T16:03:31;9.90;49.40
15296;DHT22;7749;49.964;7.890;2023-03-01T16:05:59;9.80;49.60
15296;DHT22;7749;49.964;7.890;2023-03-01T16:08:26;9.60;50.00
15296;DHT22;7749;49.964;7.890;2023-03-01T16:10:54;9.50;50.80
15296;DHT22;7749;49.964;7.890;2023-03-01T16:13:22;9.40;50.80
15296;DHT22;7749;49.964;7.890;2023-03-01T16:15:50;9.40;51.20
15296;DHT22;7749;49.964;7.890;2023-03-01T16:18:18;9.40;51.60
15296;DHT22;7749;49.964;7.890;2023-03-01T16:20:46;9.30;51.80
15296;DHT22;7749;49.964;7.890;2023-03-01T16:23:14;9.20;52.10
15296;DHT22;7749;49.964;7.890;2023-03-01T16:25:44;9.10;52.60
15296;DHT22;7749;49.964;7.890;2023-03-01T16:28:18;8.90;52.80
15296;DHT22;7749;49.964;7.890;2023-03-01T16:30:51;8.90;53.10
15296;DHT22;7749;49.964;7.890;2023-03-01T16:33:19;8.80;53.40
15296;DHT22;7749;49.964;7.890;2023-03-01T16:36:11;8.60;53.60
15296;DHT22;7749;49.964;7.890;2023-03-01T16:38:50;8.50;54.20
15296;DHT22;7749;49.964;7.890;2023-03-01T16:41:27;8.50;54.60
15296;DHT22;7749;49.964;7.890;2023-03-01T16:43:55;8.50;55.20
15296;DHT22;7749;49.964;7.890;2023-03-01T16:46:25;8.50;54.90
15296;DHT22;7749;49.964;7.890;2023-03-01T16:48:54;8.50;55.10
15296;DHT22;7749;49.964;7.890;2023-03-01T16:51:23;8.50;55.20
15296;DHT22;7749;49.964;7.890;2023-03-01T16:53:51;8.40;55.70
15296;DHT22;7749;49.964;7.890;2023-03-01T16:56:19;8.40;56.20
15296;DHT22;7749;49.964;7.890;2023-03-01T16:58:48;8.30;56.80
15296;DHT22;7749;49.964;7.890;2023-03-01T17:01:18;8.10;56.10
15296;DHT22;7749;49.964;7.890;2023-03-01T17:03:47;8.10;56.90
15296;DHT22;7749;49.964;7.890;2023-03-01T17:06:19;8.00;57.10
15296;DHT22;7749;49.964;7.890;2023-03-01T17:08:49;8.00;57.00
15296;DHT22;7749;49.964;7.890;2023-03-01T17:11:18;7.90;57.60
15296;DHT22;7749;49.964;7.890;2023-03-01T17:13:46;7.80;57.70
15296;DHT22;7749;49.964;7.890;2023-03-01T17:16:17;7.80;57.30
15296;DHT22;7749;49.964;7.890;2023-03-01T17:18:45;7.60;57.60
15296;DHT22;7749;49.964;7.890;2023-03-01T17:21:13;7.60;57.80
15296;DHT22;7749;49.964;7.890;2023-03-01T17:23:43;7.60;59.10
15296;DHT22;7749;49.964;7.890;2023-03-01T17:26:12;7.50;58.60
15296;DHT22;7749;49.964;7.890;2023-03-01T17:28:40;7.50;59.00
15296;DHT22;7749;49.964;7.890;2023-03-01T17:31:11;7.40;58.90
15296;DHT22;7749;49.964;7.890;2023-03-01T17:33:38;7.40;58.60
15296;DHT22;7749;49.964;7.890;2023-03-01T17:36:06;7.40;59.10
15296;DHT22;7749;49.964;7.890;2023-03-01T17:38:34;7.40;59.10
15296;DHT22;7749;49.964;7.890;2023-03-01T17:41:04;7.30;59.10
15296;DHT22;7749;49.964;7.890;2023-03-01T17:43:32;7.30;59.60
15296;DHT22;7749;49.964;7.890;2023-03-01T17:46:01;7.30;59.90
15296;DHT22;7749;49.964;7.890;2023-03-01T17:48:29;7.20;59.90
15296;DHT22;7749;49.964;7.890;2023-03-01T17:50:56;7.10;60.20
15296;DHT22;7749;49.964;7.890;2023-03-01T17:53:24;7.10;59.90
15296;DHT22;7749;49.964;7.890;2023-03-01T17:55:59;7.00;60.20
15296;DHT22;7749;49.964;7.890;2023-03-01T17:58:28;6.90;60.10
15296;DHT22;7749;49.964;7.890;2023-03-01T18:01:05;6.80;60.50
15296;DHT22;7749;49.964;7.890;2023-03-01T18:03:33;6.80;60.60
15296;DHT22;7749;49.964;7.890;2023-03-01T18:06:01;6.80;61.00
15296;DHT22;7749;49.964;7.890;2023-03-01T18:08:28;6.80;60.70
15296;DHT22;7749;49.964;7.890;2023-03-01T18:10:59;6.70;61.30
15296;DHT22;7749;49.964;7.890;2023-03-01T18:13:27;6.70;62.20
15296;DHT22;7749;49.964;7.890;2023-03-01T18:15:54;6.70;62.00
15296;DHT22;7749;49.964;7.890;2023-03-01T18:18:27;6.60;62.30
15296;DHT22;7749;49.964;7.890;2023-03-01T18:20:59;6.50;62.00
15296;DHT22;7749;49.964;7.890;2023-03-01T18:23:28;6.50;62.30
15296;DHT22;7749;49.964;7.890;2023-03-01T18:26:11;6.50;62.40
15296;DHT22;7749;49.964;7.890;2023-03-01T18:28:39;6.50;62.20
15296;DHT22;7749;49.964;7.890;2023-03-01T18:31:08;6.40;62.60